Longmire, WA (98397)

6:47 PM PDT on September 30, 2016 (GMT -0700)
Ashford | | Change Station

Elev 1935 ft 46.74 °N, 121.97 °W | Updated 11 seconds ago

Clear
Clear
50.5 °F
Feels Like 50.5 °F
N
0.0
Wind Variable Wind from SSW

Today
High -- | Low -- °F
--% Chance of Precip.
Yesterday
High -- | Low -- °F
Precip. -- in
Pressure 29.98 in
Visibility -9999.0 miles
Clouds Clear
Dew Point 49 °F
Humidity 93%
Rainfall 0.00 in
Snow Depth Not available.
7:05 AM 6:47 PM
New Moon, 0% visible
METAR KSMP 010056Z AUTO VRB05KT CLR 09/03 A2996 RMK AO2 SLP150 T00890033 $
Pressure 29.98 in
Visibility -9999.0 miles
Clouds Clear
Dew Point 49 °F
Humidity 93%
Rainfall 0.00 in
Snow Depth Not available.
7:05 AM 6:47 PM
New Moon, 0% visible
METAR KSMP 010056Z AUTO VRB05KT CLR 09/03 A2996 RMK AO2 SLP150 T00890033 $

10-Day Weather Forecast

Almanac

Astronomy

Sep. 30, 2016 Rise Set
Actual Time
Civil Twilight
Nautical Twilight
Astronomical Twilight
Moon
Length of Visible Light
Length of Day
Tomorrow will be .
, % of the Moon is Illuminated

Today's Extremes

State Highs State Lows

Community

WunderPhotos

Upload Photos

1,942,837 photos uploaded!

WunderBlog® & News

Nearby

Air Quality

  Air Quality AQ Index Pollutant
Not available.

Snow Depth

Station Depth Elevation

Earthquake Activity

City Distance Mag. Time & Date
Minimum magnitude displayed is 2.5.

Coastal Water Temperatures

Place Temperature

Stations

Nearby Weather Stations

Station Location Temp. Windchill Dew Point Humidity Wind Precip. Elev Updated Type
                   

Watches & Warnings

There are currently no watches in effect.